Time;durP1;ratioP1;P1;durP2;ratioP2;P2;SDS_P1;SDS_P2;PMS_P1;PMS_P2;Temp;Humidity;BMP_temperature;BMP_pressure;BME280_temperature;BME280_humidity;BME280_pressure;Samples;Min_cycle;Max_cycle;Signal;HPM_P1;HPM_P2
2022/02/16 00:01:01;;;;;;;4.75;2.00;;;7.40;99.90;;;;;;5012401;28;20163;-52
2022/02/16 00:03:27;;;;;;;2.88;1.58;;;7.30;99.90;;;;;;5011751;28;20025;-50
2022/02/16 00:05:52;;;;;;;7.38;1.98;;;7.30;99.90;;;;;;5012377;28;20478;-51
2022/02/16 00:08:18;;;;;;;7.47;2.03;;;7.30;99.90;;;;;;5011027;28;20050;-51
2022/02/16 00:10:43;;;;;;;5.05;1.70;;;7.30;99.90;;;;;;5012540;28;20026;-52
2022/02/16 00:13:09;;;;;;;8.27;2.42;;;7.30;99.90;;;;;;5011936;28;20029;-49
2022/02/16 00:15:34;;;;;;;6.50;2.30;;;7.30;99.90;;;;;;5012188;28;20547;-53
2022/02/16 00:18:00;;;;;;;3.63;1.80;;;7.30;99.90;;;;;;5012237;28;20030;-52
2022/02/16 00:20:25;;;;;;;5.90;1.95;;;7.30;99.90;;;;;;5010819;28;20022;-52
2022/02/16 00:22:51;;;;;;;3.22;1.92;;;7.30;99.90;;;;;;5010473;28;20397;-49
2022/02/16 00:25:16;;;;;;;5.78;2.08;;;7.30;99.90;;;;;;5012395;28;20070;-53
2022/02/16 00:27:42;;;;;;;3.33;2.15;;;7.20;99.90;;;;;;5012688;28;20402;-51
2022/02/16 00:30:08;;;;;;;3.45;1.90;;;7.30;99.90;;;;;;5012128;28;20029;-52
2022/02/16 00:32:34;;;;;;;3.90;1.73;;;7.30;99.90;;;;;;5011915;28;20033;-50
2022/02/16 00:35:00;;;;;;;5.80;1.90;;;7.30;99.90;;;;;;5011717;28;20405;-50
2022/02/16 00:37:25;;;;;;;3.90;2.15;;;7.30;99.90;;;;;;5011818;28;20034;-54
2022/02/16 00:39:51;;;;;;;2.38;1.50;;;7.30;99.90;;;;;;5011866;28;20497;-55
2022/02/16 00:42:16;;;;;;;4.85;1.95;;;7.20;99.90;;;;;;5011789;28;20508;-51
2022/02/16 00:44:41;;;;;;;7.38;1.88;;;7.20;99.90;;;;;;5011826;28;20033;-48
2022/02/16 00:47:07;;;;;;;6.28;2.63;;;7.30;99.90;;;;;;5011992;28;20053;-54
2022/02/16 00:49:33;;;;;;;3.92;1.98;;;7.20;99.90;;;;;;5012007;28;20036;-51
2022/02/16 00:51:58;;;;;;;5.45;1.80;;;7.20;99.90;;;;;;5012017;28;20025;-48
2022/02/16 00:54:24;;;;;;;7.43;2.72;;;7.20;99.90;;;;;;5011682;28;20092;-48
2022/02/16 00:56:49;;;;;;;3.67;1.98;;;7.20;99.90;;;;;;5011508;28;20030;-51
2022/02/16 00:59:15;;;;;;;7.03;1.80;;;7.20;99.90;;;;;;5011759;28;20036;-52
2022/02/16 01:01:40;;;;;;;7.57;2.00;;;7.20;99.90;;;;;;5011692;28;20029;-48
2022/02/16 01:04:06;;;;;;;2.72;1.98;;;7.20;99.90;;;;;;5011562;28;20095;-53
2022/02/16 01:06:31;;;;;;;2.67;2.13;;;;;;;;;;5010330;28;20030;-49
2022/02/16 01:08:57;;;;;;;5.45;2.70;;;7.20;99.90;;;;;;5011704;28;20389;-52
2022/02/16 01:11:23;;;;;;;12.57;2.75;;;7.20;99.90;;;;;;5010582;28;20505;-49
2022/02/16 01:13:49;;;;;;;3.95;2.08;;;7.20;99.90;;;;;;5011452;28;20064;-49
2022/02/16 01:16:15;;;;;;;7.47;2.38;;;7.20;99.90;;;;;;5011834;28;20481;-48
2022/02/16 01:18:40;;;;;;;6.05;2.53;;;7.20;99.90;;;;;;5011927;28;20193;-49
2022/02/16 01:21:06;;;;;;;3.10;2.15;;;7.20;99.90;;;;;;5011694;28;20355;-51
2022/02/16 01:23:31;;;;;;;4.15;2.08;;;7.20;99.90;;;;;;5011257;28;20040;-48
2022/02/16 01:25:57;;;;;;;4.30;2.03;;;7.10;99.90;;;;;;5010498;28;20022;-52
2022/02/16 01:28:22;;;;;;;7.38;2.60;;;7.20;99.90;;;;;;5011383;28;20195;-50
2022/02/16 01:30:49;;;;;;;4.47;1.95;;;7.10;99.90;;;;;;5010219;28;20397;-51
2022/02/16 01:33:14;;;;;;;6.93;2.42;;;7.10;99.90;;;;;;5010918;28;20025;-51
2022/02/16 01:35:40;;;;;;;6.15;2.33;;;7.10;99.90;;;;;;5010135;28;20036;-52
2022/02/16 01:38:05;;;;;;;7.18;2.13;;;7.10;99.90;;;;;;5011441;28;20029;-48
2022/02/16 01:40:31;;;;;;;13.35;2.78;;;7.10;99.90;;;;;;5011436;28;20079;-49
2022/02/16 01:42:56;;;;;;;3.72;2.50;;;7.10;99.90;;;;;;5010877;28;20057;-48
2022/02/16 01:45:29;;;;;;;4.32;2.30;;;7.10;99.90;;;;;;5011378;28;20084;-55
2022/02/16 01:47:56;;;;;;;2.88;2.10;;;7.10;99.90;;;;;;5010024;28;20137;-52
2022/02/16 01:50:22;;;;;;;2.88;1.83;;;7.10;99.90;;;;;;5011414;28;20022;-49
2022/02/16 01:52:47;;;;;;;3.72;2.28;;;7.00;99.90;;;;;;5010839;28;20037;-52
2022/02/16 01:55:13;;;;;;;4.93;2.08;;;7.00;99.90;;;;;;5011068;28;20088;-51
2022/02/16 01:57:40;;;;;;;6.85;2.55;;;7.00;99.90;;;;;;5011634;28;20029;-50
2022/02/16 02:00:07;;;;;;;3.47;2.30;;;6.90;99.90;;;;;;5009911;28;20108;-48
2022/02/16 02:02:33;;;;;;;5.03;2.15;;;6.90;99.90;;;;;;5010438;28;20030;-54
2022/02/16 02:05:00;;;;;;;5.05;2.10;;;6.90;99.90;;;;;;5010972;28;20052;-52
2022/02/16 02:07:26;;;;;;;3.10;2.08;;;6.90;99.90;;;;;;5011678;28;20022;-48
2022/02/16 02:09:52;;;;;;;3.80;1.80;;;6.90;99.90;;;;;;5014640;28;20694;-51
2022/02/16 02:12:18;;;;;;;4.75;2.28;;;6.80;99.90;;;;;;5014417;28;20106;-52
2022/02/16 02:14:50;;;;;;;10.68;3.05;;;6.80;99.90;;;;;;5014100;28;20537;-50
2022/02/16 02:17:15;;;;;;;3.17;1.60;;;6.80;99.90;;;;;;5014513;28;20060;-53
2022/02/16 02:19:41;;;;;;;11.23;4.20;;;6.80;99.90;;;;;;5013111;28;20062;-49
2022/02/16 02:22:06;;;;;;;8.43;2.20;;;6.80;99.90;;;;;;5013069;28;20108;-47
2022/02/16 02:24:32;;;;;;;6.32;2.30;;;6.80;99.90;;;;;;5013876;28;20462;-55
2022/02/16 02:26:57;;;;;;;3.80;1.83;;;6.80;99.90;;;;;;5014165;28;20032;-50
2022/02/16 02:29:23;;;;;;;3.13;2.10;;;6.90;99.90;;;;;;5014167;28;20065;-51
2022/02/16 02:31:49;;;;;;;6.47;2.00;;;6.80;99.90;;;;;;5014286;28;20034;-49
2022/02/16 02:34:15;;;;;;;3.10;1.98;;;6.90;99.90;;;;;;5014033;28;20029;-50
2022/02/16 02:36:41;;;;;;;2.75;2.00;;;6.90;99.90;;;;;;5013868;28;20041;-47
2022/02/16 02:39:06;;;;;;;5.43;2.25;;;6.90;99.90;;;;;;5014285;28;20068;-48
2022/02/16 02:41:32;;;;;;;2.20;1.63;;;6.90;99.90;;;;;;5013928;28;20034;-46
2022/02/16 02:43:58;;;;;;;3.92;2.17;;;6.90;99.90;;;;;;5013762;28;20371;-49
2022/02/16 02:46:24;;;;;;;5.72;2.05;;;6.90;99.90;;;;;;5014064;28;20025;-47
2022/02/16 02:48:50;;;;;;;3.45;1.67;;;6.90;99.90;;;;;;5012787;28;20025;-49
2022/02/16 02:51:16;;;;;;;6.63;2.38;;;6.90;99.90;;;;;;5013936;28;20030;-55
2022/02/16 02:53:42;;;;;;;8.02;2.22;;;6.90;99.90;;;;;;5013403;28;20053;-50
2022/02/16 02:56:08;;;;;;;2.88;1.60;;;6.90;99.90;;;;;;5012493;28;20464;-50
2022/02/16 02:58:35;;;;;;;4.78;1.92;;;6.90;99.90;;;;;;5013627;28;20106;-53
2022/02/16 03:01:00;;;;;;;5.65;1.65;;;6.80;99.90;;;;;;5013774;28;20076;-47
2022/02/16 03:03:26;;;;;;;7.15;2.35;;;6.80;99.90;;;;;;5012763;28;20022;-50
2022/02/16 03:05:52;;;;;;;7.47;2.28;;;6.80;99.90;;;;;;5014058;28;20030;-50
2022/02/16 03:08:18;;;;;;;5.35;2.40;;;6.80;99.90;;;;;;5013571;28;20030;-47
2022/02/16 03:10:43;;;;;;;10.15;2.15;;;6.80;99.90;;;;;;5013492;28;20026;-52
2022/02/16 03:13:19;;;;;;;6.75;1.98;;;6.70;99.90;;;;;;5013100;28;20030;-49
2022/02/16 03:15:49;;;;;;;2.58;1.88;;;6.70;99.90;;;;;;5013420;28;20363;-54
2022/02/16 03:18:15;;;;;;;6.57;1.95;;;6.70;99.90;;;;;;5012124;28;20034;-54
2022/02/16 03:20:40;;;;;;;3.65;2.00;;;6.70;99.90;;;;;;5013221;28;20057;-52
2022/02/16 03:23:06;;;;;;;2.40;1.70;;;6.80;99.90;;;;;;5012856;28;20069;-49
2022/02/16 03:25:32;;;;;;;2.63;1.52;;;6.80;99.90;;;;;;5013610;28;20052;-51
2022/02/16 03:27:57;;;;;;;4.32;2.65;;;6.80;99.90;;;;;;5012072;28;20592;-50
2022/02/16 03:30:23;;;;;;;2.63;1.80;;;6.70;99.90;;;;;;5013312;28;20049;-52
2022/02/16 03:32:48;;;;;;;7.18;2.45;;;6.80;99.90;;;;;;5012725;28;20351;-52
2022/02/16 03:35:14;;;;;;;5.05;1.60;;;6.80;99.90;;;;;;5013027;28;20045;-48
2022/02/16 03:37:39;;;;;;;4.38;2.15;;;6.80;99.90;;;;;;5013491;28;20029;-50
2022/02/16 03:40:06;;;;;;;3.10;1.90;;;6.80;99.90;;;;;;5013314;28;20481;-47
2022/02/16 03:42:31;;;;;;;3.78;1.88;;;6.70;99.90;;;;;;5012935;28;20390;-49
2022/02/16 03:44:57;;;;;;;2.50;1.73;;;6.70;99.90;;;;;;5013110;28;20030;-47
2022/02/16 03:47:22;;;;;;;1.85;1.55;;;6.70;99.90;;;;;;5013309;28;20025;-48
2022/02/16 03:49:48;;;;;;;7.50;2.05;;;6.70;99.90;;;;;;5013084;28;20041;-50
2022/02/16 03:52:13;;;;;;;2.03;1.85;;;6.70;99.90;;;;;;5012876;28;20033;-46
2022/02/16 03:54:39;;;;;;;5.22;2.15;;;6.70;99.90;;;;;;5012520;28;20397;-49
2022/02/16 03:57:04;;;;;;;4.05;1.65;;;6.70;99.90;;;;;;5011555;28;20034;-49
2022/02/16 03:59:30;;;;;;;3.50;1.65;;;6.70;99.90;;;;;;5013206;28;20241;-52
2022/02/16 04:01:55;;;;;;;5.28;1.98;;;6.70;99.90;;;;;;5012447;28;20022;-51
2022/02/16 04:04:21;;;;;;;4.30;1.77;;;6.70;99.90;;;;;;5012290;28;20026;-50
2022/02/16 04:06:47;;;;;;;2.63;1.67;;;6.70;99.90;;;;;;5012707;28;20405;-50
2022/02/16 04:09:13;;;;;;;3.20;1.35;;;6.70;99.90;;;;;;5012713;28;20034;-53
2022/02/16 04:11:39;;;;;;;1.58;1.48;;;6.80;99.90;;;;;;5013046;28;20380;-49
2022/02/16 04:14:04;;;;;;;7.55;1.90;;;6.80;99.90;;;;;;5012144;28;20053;-48
2022/02/16 04:16:30;;;;;;;3.25;1.60;;;6.80;99.90;;;;;;5010983;28;20121;-49
2022/02/16 04:18:55;;;;;;;2.78;1.80;;;6.80;99.90;;;;;;5012542;28;20053;-49
2022/02/16 04:21:21;;;;;;;2.47;1.35;;;6.80;99.90;;;;;;5012550;28;20018;-48
2022/02/16 04:23:46;;;;;;;2.35;1.80;;;6.80;99.90;;;;;;5012308;28;20478;-48
2022/02/16 04:26:12;;;;;;;7.47;2.03;;;6.80;99.90;;;;;;5012556;28;20034;-48
2022/02/16 04:28:38;;;;;;;2.25;1.23;;;6.90;99.90;;;;;;5012630;28;20407;-48
2022/02/16 04:31:04;;;;;;;2.70;1.40;;;6.90;99.90;;;;;;5011652;28;20029;-51
2022/02/16 04:33:29;;;;;;;3.00;1.67;;;6.90;99.90;;;;;;5011596;28;20026;-54
2022/02/16 04:35:55;;;;;;;4.75;1.67;;;6.90;99.90;;;;;;5011960;28;20034;-48
2022/02/16 04:38:20;;;;;;;1.80;1.30;;;6.90;99.90;;;;;;5011964;28;20032;-48
2022/02/16 04:40:46;;;;;;;2.15;1.02;;;6.90;99.90;;;;;;5011923;28;20022;-52
2022/02/16 04:43:11;;;;;;;1.77;1.35;;;6.90;99.90;;;;;;5010294;28;20021;-53
2022/02/16 04:45:37;;;;;;;2.33;1.52;;;7.00;99.90;;;;;;5012025;28;20030;-53
2022/02/16 04:48:04;;;;;;;1.50;1.30;;;7.00;99.90;;;;;;5011958;28;20077;-54
2022/02/16 04:50:29;;;;;;;4.68;2.03;;;7.00;99.90;;;;;;5011889;28;20026;-48
2022/02/16 04:52:55;;;;;;;1.50;1.30;;;7.00;99.90;;;;;;5011389;28;20032;-50
2022/02/16 04:55:23;;;;;;;2.10;1.35;;;7.00;99.90;;;;;;5011768;28;20433;-54
2022/02/16 04:57:48;;;;;;;4.25;1.60;;;7.00;99.90;;;;;;5010804;28;20494;-53
2022/02/16 05:00:14;;;;;;;1.83;1.23;;;7.00;99.90;;;;;;5011726;28;20103;-47
2022/02/16 05:02:40;;;;;;;2.60;1.00;;;7.10;99.90;;;;;;5009701;28;20401;-52
2022/02/16 05:05:06;;;;;;;2.03;1.48;;;7.10;99.90;;;;;;5011626;28;20026;-51
2022/02/16 05:07:32;;;;;;;3.08;1.52;;;7.10;99.90;;;;;;5011638;28;20041;-55
2022/02/16 05:09:57;;;;;;;4.00;1.75;;;7.10;99.90;;;;;;5010414;28;20152;-49
2022/02/16 05:12:23;;;;;;;2.63;1.38;;;7.10;99.90;;;;;;5011451;28;20105;-47
2022/02/16 05:14:48;;;;;;;4.07;1.17;;;7.20;99.90;;;;;;5011347;28;20042;-53
2022/02/16 05:17:14;;;;;;;1.48;1.10;;;7.20;99.90;;;;;;5011935;28;20033;-51
2022/02/16 05:19:40;;;;;;;2.55;1.75;;;7.20;99.90;;;;;;5011475;28;20497;-54
2022/02/16 05:22:05;;;;;;;2.50;1.27;;;7.20;99.90;;;;;;5011379;28;20038;-49
2022/02/16 05:24:31;;;;;;;3.10;1.20;;;7.20;99.90;;;;;;5011092;28;20025;-52
2022/02/16 05:26:57;;;;;;;1.40;1.30;;;7.20;99.90;;;;;;5011305;28;20033;-52
2022/02/16 05:29:22;;;;;;;3.25;1.30;;;7.20;99.90;;;;;;5011412;28;20065;-51
2022/02/16 05:31:48;;;;;;;1.88;1.10;;;7.20;99.90;;;;;;5011543;28;20484;-50
2022/02/16 05:34:13;;;;;;;4.78;1.23;;;7.20;99.90;;;;;;5009606;28;20065;-53
2022/02/16 05:36:39;;;;;;;4.65;1.63;;;7.20;99.90;;;;;;5011267;28;20033;-51
2022/02/16 05:39:05;;;;;;;1.67;1.30;;;7.20;99.90;;;;;;5010064;28;20022;-52
2022/02/16 05:41:31;;;;;;;1.23;1.10;;;7.20;99.90;;;;;;5011210;28;20033;-52
2022/02/16 05:43:57;;;;;;;2.40;1.20;;;7.10;99.90;;;;;;5012635;28;20021;-50
2022/02/16 05:46:23;;;;;;;1.50;1.40;;;7.20;99.90;;;;;;5015015;28;20026;-49
2022/02/16 05:48:49;;;;;;;3.60;1.00;;;7.20;99.90;;;;;;5015096;28;20057;-48
2022/02/16 05:51:14;;;;;;;8.32;1.65;;;7.20;99.90;;;;;;5014918;28;20485;-53
2022/02/16 05:53:40;;;;;;;2.53;1.15;;;7.20;99.90;;;;;;5033859;22;20041;-49
2022/02/16 05:56:06;;;;;;;3.63;1.80;;;7.20;99.90;;;;;;5054505;28;20045;-46
2022/02/16 05:58:31;;;;;;;2.40;1.35;;;7.20;99.90;;;;;;5054464;28;20055;-47
2022/02/16 06:00:59;;;;;;;2.50;1.13;;;7.20;99.90;;;;;;5053064;28;20061;-51
2022/02/16 06:03:24;;;;;;;2.50;1.40;;;7.20;99.90;;;;;;5053829;28;20284;-49
2022/02/16 06:05:51;;;;;;;3.17;1.35;;;7.20;99.90;;;;;;5053049;28;20067;-49
2022/02/16 06:08:17;;;;;;;2.13;1.10;;;7.10;99.90;;;;;;5054315;28;20552;-48
2022/02/16 06:10:42;;;;;;;3.83;1.50;;;7.10;99.90;;;;;;5052993;28;20031;-50
2022/02/16 06:13:08;;;;;;;1.27;1.17;;;7.10;99.90;;;;;;5053976;28;20104;-51
2022/02/16 06:15:33;;;;;;;1.95;1.45;;;7.10;99.90;;;;;;5054173;28;20029;-49
2022/02/16 06:17:59;;;;;;;3.13;1.25;;;7.00;99.90;;;;;;5054219;28;20542;-48
2022/02/16 06:20:25;;;;;;;3.00;1.35;;;7.10;99.90;;;;;;5054119;28;20056;-49
2022/02/16 06:22:53;;;;;;;2.97;1.10;;;7.10;99.90;;;;;;5052438;28;20064;-47
2022/02/16 06:25:18;;;;;;;4.30;1.85;;;7.00;99.90;;;;;;5054364;28;20035;-49
2022/02/16 06:27:44;;;;;;;2.30;1.77;;;7.00;99.90;;;;;;5054139;28;20108;-51
2022/02/16 06:30:10;;;;;;;3.22;1.80;;;7.00;99.90;;;;;;5054347;28;20029;-52
2022/02/16 06:32:36;;;;;;;3.30;1.55;;;7.00;99.90;;;;;;5053894;28;20546;-50
2022/02/16 06:35:02;;;;;;;3.88;2.10;;;7.00;99.90;;;;;;5053388;28;20049;-49
2022/02/16 06:37:28;;;;;;;1.60;1.48;;;6.90;99.90;;;;;;5052457;28;20082;-47
2022/02/16 06:39:53;;;;;;;5.38;1.63;;;6.90;99.90;;;;;;5054073;28;20054;-46
2022/02/16 06:42:19;;;;;;;4.50;1.80;;;6.90;99.90;;;;;;5053772;28;20039;-47
2022/02/16 06:44:45;;;;;;;2.63;1.90;;;6.90;99.90;;;;;;5053702;28;20391;-52
2022/02/16 06:47:11;;;;;;;6.00;1.85;;;6.90;99.90;;;;;;5053970;28;20033;-47
2022/02/16 06:49:36;;;;;;;4.55;1.55;;;6.90;99.90;;;;;;5053742;28;20496;-48
2022/02/16 06:52:03;;;;;;;3.83;1.95;;;6.90;99.90;;;;;;5053317;28;20040;-42
2022/02/16 06:54:28;;;;;;;4.25;1.73;;;6.90;99.90;;;;;;5052724;28;20040;-47
2022/02/16 06:56:54;;;;;;;6.65;2.38;;;6.80;99.90;;;;;;5053821;28;20031;-53
2022/02/16 06:59:19;;;;;;;2.65;1.95;;;6.80;99.90;;;;;;5053706;28;20473;-47
2022/02/16 07:01:45;;;;;;;5.65;2.08;;;6.80;99.90;;;;;;5052101;28;20027;-43
2022/02/16 07:04:10;;;;;;;5.68;2.78;;;6.80;99.90;;;;;;5052388;28;20040;-43
2022/02/16 07:06:36;;;;;;;1.90;1.60;;;6.80;99.90;;;;;;5053394;28;20028;-53
2022/02/16 07:09:01;;;;;;;7.35;2.30;;;6.80;99.90;;;;;;5052128;28;20031;-49
2022/02/16 07:11:27;;;;;;;4.97;1.77;;;6.70;99.90;;;;;;5053498;28;20075;-48
2022/02/16 07:13:52;;;;;;;4.55;1.70;;;6.80;99.90;;;;;;5052982;28;20099;-44
2022/02/16 07:16:18;;;;;;;3.83;2.20;;;6.70;99.90;;;;;;5053071;28;20064;-49
2022/02/16 07:18:45;;;;;;;4.00;1.77;;;6.70;99.90;;;;;;5053002;28;20056;-49
2022/02/16 07:21:11;;;;;;;5.55;1.98;;;6.70;99.90;;;;;;5053105;28;20031;-50
2022/02/16 07:23:37;;;;;;;5.32;2.00;;;6.70;99.90;;;;;;5052627;28;20017;-49
2022/02/16 07:26:03;;;;;;;4.68;1.90;;;6.70;99.90;;;;;;5052877;28;20365;-47
2022/02/16 07:28:29;;;;;;;2.10;1.92;;;6.70;99.90;;;;;;5053076;28;20043;-51
2022/02/16 07:30:56;;;;;;;4.88;1.95;;;6.70;99.90;;;;;;5052847;28;20112;-48
2022/02/16 07:33:22;;;;;;;1.80;1.70;;;6.70;99.90;;;;;;5052569;28;20547;-51
2022/02/16 07:35:49;;;;;;;5.93;1.92;;;6.80;99.90;;;;;;5052581;28;20098;-51
2022/02/16 07:38:14;;;;;;;4.90;2.10;;;6.70;99.90;;;;;;5052911;28;20017;-48
2022/02/16 07:40:40;;;;;;;2.20;1.35;;;6.70;99.90;;;;;;5054084;28;20028;-52
2022/02/16 07:43:05;;;;;;;5.22;1.75;;;6.70;99.90;;;;;;5055184;28;20027;-53
2022/02/16 07:45:31;;;;;;;4.70;1.65;;;6.80;99.90;;;;;;5052744;28;20400;-44
2022/02/16 07:47:56;;;;;;;5.63;1.80;;;6.90;99.90;;;;;;5051393;28;20477;-53
2022/02/16 07:50:22;;;;;;;8.25;1.40;;;6.90;99.90;;;;;;5052431;28;20029;-52
2022/02/16 07:52:48;;;;;;;4.35;1.20;;;6.90;99.90;;;;;;5050932;28;20052;-48
2022/02/16 07:55:14;;;;;;;2.20;1.00;;;6.90;99.90;;;;;;5052188;28;20036;-48
2022/02/16 07:57:39;;;;;;;1.02;0.80;;;6.90;99.90;;;;;;5052395;28;20035;-46
2022/02/16 08:00:06;;;;;;;2.17;1.10;;;7.00;99.90;;;;;;5052378;28;20025;-48
2022/02/16 08:02:32;;;;;;;1.80;1.35;;;7.00;99.90;;;;;;5051853;28;20104;-50
2022/02/16 08:04:57;;;;;;;0.70;0.70;;;7.00;99.90;;;;;;5050969;28;20056;-48
2022/02/16 08:07:23;;;;;;;2.70;1.23;;;7.00;99.90;;;;;;5052025;28;20017;-47
2022/02/16 08:09:49;;;;;;;3.13;0.98;;;7.10;99.90;;;;;;5052151;28;20024;-51
2022/02/16 08:12:15;;;;;;;2.55;0.70;;;7.00;99.90;;;;;;5052027;28;20087;-49
2022/02/16 08:14:40;;;;;;;0.90;0.90;;;7.10;99.90;;;;;;5051681;28;20044;-47
2022/02/16 08:17:06;;;;;;;1.02;0.95;;;7.00;99.90;;;;;;5051473;28;20033;-48
2022/02/16 08:19:32;;;;;;;3.20;0.68;;;7.00;99.90;;;;;;5051935;28;20049;-51
2022/02/16 08:21:58;;;;;;;3.83;1.02;;;7.10;99.90;;;;;;5051920;28;20031;-52
2022/02/16 08:24:25;;;;;;;1.83;1.13;;;7.10;99.90;;;;;;5051556;28;20090;-52
2022/02/16 08:26:51;;;;;;;3.47;0.90;;;7.10;99.90;;;;;;5051896;28;20028;-50
2022/02/16 08:29:17;;;;;;;1.75;0.70;;;7.10;99.90;;;;;;5052129;28;20031;-49
2022/02/16 08:31:45;;;;;;;6.03;1.00;;;7.10;99.90;;;;;;5051940;28;20108;-49
2022/02/16 08:34:10;;;;;;;2.92;1.00;;;7.10;99.90;;;;;;5051375;28;20021;-47
2022/02/16 08:36:37;;;;;;;2.33;0.82;;;7.20;99.90;;;;;;5051863;28;20399;-48
2022/02/16 08:39:03;;;;;;;3.63;1.05;;;7.20;99.90;;;;;;5051837;28;20021;-50
2022/02/16 08:41:29;;;;;;;1.20;0.90;;;7.20;99.90;;;;;;5051789;28;20029;-49
2022/02/16 08:43:55;;;;;;;1.90;0.90;;;7.20;99.90;;;;;;5051401;28;20461;-44
2022/02/16 08:46:20;;;;;;;1.23;1.08;;;7.20;99.90;;;;;;5051914;28;20094;-48
2022/02/16 08:48:46;;;;;;;1.00;0.95;;;7.30;99.90;;;;;;5051828;28;20035;-50
2022/02/16 08:51:12;;;;;;;2.25;0.82;;;7.20;99.90;;;;;;5047575;28;20021;-49
2022/02/16 08:53:37;;;;;;;1.63;1.15;;;7.30;99.90;;;;;;5029843;28;20021;-52
2022/02/16 08:56:03;;;;;;;4.97;1.50;;;7.30;99.90;;;;;;5038345;28;20024;-47
2022/02/16 08:58:29;;;;;;;0.98;0.98;;;7.30;99.90;;;;;;5051510;28;20377;-49
2022/02/16 09:00:56;;;;;;;2.40;1.17;;;7.30;99.90;;;;;;5051268;28;20026;-50
2022/02/16 09:03:22;;;;;;;3.05;2.00;;;7.30;99.90;;;;;;5050813;28;20018;-48
2022/02/16 09:05:47;;;;;;;1.55;1.00;;;7.30;99.90;;;;;;5051338;28;20021;-43
2022/02/16 09:08:13;;;;;;;1.38;0.80;;;7.30;99.90;;;;;;5043949;28;20040;-47
2022/02/16 09:10:39;;;;;;;2.80;1.00;;;7.30;99.90;;;;;;5051741;28;20033;-47
2022/02/16 09:13:04;;;;;;;4.03;1.20;;;7.30;99.90;;;;;;5050382;28;20480;-50
2022/02/16 09:15:30;;;;;;;1.05;0.88;;;7.40;99.90;;;;;;5050948;28;20036;-47
2022/02/16 09:17:57;;;;;;;3.90;1.33;;;7.40;99.90;;;;;;5053770;28;20025;-45
2022/02/16 09:20:24;;;;;;;1.10;1.00;;;7.40;99.90;;;;;;5055838;28;20107;-47
2022/02/16 09:22:50;;;;;;;2.35;1.23;;;7.40;99.90;;;;;;5036541;28;20033;-50
2022/02/16 09:25:16;;;;;;;1.02;0.90;;;7.50;99.90;;;;;;5035834;28;20052;-48
2022/02/16 09:27:43;;;;;;;2.03;1.00;;;7.40;99.90;;;;;;5051492;28;20025;-52
2022/02/16 09:30:10;;;;;;;0.95;0.93;;;7.40;99.90;;;;;;5055299;28;20033;-47
2022/02/16 09:32:36;;;;;;;0.93;0.90;;;7.50;99.90;;;;;;5055482;28;20108;-49
2022/02/16 09:35:01;;;;;;;1.15;0.98;;;7.50;99.90;;;;;;5055171;28;20017;-50
2022/02/16 09:37:28;;;;;;;1.17;1.00;;;7.50;99.90;;;;;;5055652;28;20067;-46
2022/02/16 09:39:53;;;;;;;1.85;0.93;;;7.50;99.90;;;;;;5056068;28;20299;-42
2022/02/16 09:42:19;;;;;;;1.02;1.02;;;7.50;99.90;;;;;;5054018;28;20037;-48
2022/02/16 09:44:47;;;;;;;1.02;0.93;;;7.50;99.90;;;;;;5054393;28;20028;-48
2022/02/16 09:47:13;;;;;;;0.80;0.80;;;7.50;99.90;;;;;;5055007;28;20553;-50
2022/02/16 09:49:40;;;;;;;1.40;0.93;;;7.60;99.90;;;;;;5054762;28;20503;-46
2022/02/16 09:52:07;;;;;;;1.13;1.10;;;7.60;99.90;;;;;;5053935;28;20040;-46
2022/02/16 09:54:33;;;;;;;0.90;0.90;;;7.60;99.90;;;;;;5053718;28;20037;-49
2022/02/16 09:56:58;;;;;;;4.18;0.93;;;7.60;99.90;;;;;;5049861;28;20028;-53
2022/02/16 09:59:24;;;;;;;1.75;1.23;;;7.60;99.90;;;;;;5034601;28;20022;-43
2022/02/16 10:01:57;;;;;;;1.08;0.90;;;7.60;99.90;;;;;;5044663;28;20052;-49
2022/02/16 10:04:23;;;;;;;1.80;1.00;;;7.70;99.90;;;;;;5053963;28;20017;-51
2022/02/16 10:06:48;;;;;;;1.05;0.90;;;7.70;99.90;;;;;;5053097;28;20025;-48
2022/02/16 10:09:29;;;;;;;1.52;0.90;;;7.70;99.90;;;;;;5053381;28;20036;-44
2022/02/16 10:12:00;;;;;;;2.72;1.30;;;7.70;99.90;;;;;;5053700;28;20403;-46
2022/02/16 10:14:31;;;;;;;2.45;1.10;;;7.70;99.90;;;;;;5040665;28;20029;-48
2022/02/16 10:17:03;;;;;;;2.70;1.40;;;7.80;99.90;;;;;;5034538;28;20061;-46
2022/02/16 10:19:48;;;;;;;1.63;1.45;;;7.80;99.90;;;;;;5054175;28;20103;-49
2022/02/16 10:22:14;;;;;;;1.07;1.07;;;7.80;99.90;;;;;;5053161;28;20424;-47
2022/02/16 10:24:40;;;;;;;2.05;1.20;;;7.90;99.90;;;;;;5053198;28;20025;-44
2022/02/16 10:27:06;;;;;;;1.60;0.90;;;7.80;99.90;;;;;;5053693;28;20071;-49
2022/02/16 10:29:35;;;;;;;1.48;1.20;;;7.90;99.90;;;;;;5038912;28;20091;-47
2022/02/16 10:32:02;;;;;;;1.15;1.05;;;7.80;99.90;;;;;;5035210;28;20033;-48
2022/02/16 10:34:52;;;;;;;1.52;1.20;;;7.90;99.90;;;;;;5052242;28;20021;-42
2022/02/16 10:37:27;;;;;;;0.95;0.95;;;7.80;99.90;;;;;;5053811;28;20472;-48
2022/02/16 10:40:10;;;;;;;7.18;2.80;;;7.90;99.90;;;;;;5053920;28;20032;-49
2022/02/16 10:42:39;;;;;;;3.83;2.58;;;7.90;99.90;;;;;;5044101;28;20017;-52
2022/02/16 10:45:12;;;;;;;12.70;7.25;;;7.90;99.90;;;;;;5042226;28;20025;-51
2022/02/16 10:48:02;;;;;;;4.10;1.10;;;7.90;99.90;;;;;;5053699;28;20384;-47
2022/02/16 10:50:47;;;;;;;1.70;1.20;;;8.00;99.90;;;;;;5054072;28;20067;-48
2022/02/16 10:53:23;;;;;;;1.67;1.20;;;8.00;99.90;;;;;;5053163;28;20104;-49
2022/02/16 10:55:50;;;;;;;1.25;1.15;;;8.00;99.90;;;;;;5053337;28;20036;-49
2022/02/16 10:58:21;;;;;;;1.73;1.15;;;8.10;99.90;;;;;;5053390;28;20021;-52
2022/02/16 11:00:49;;;;;;;2.88;1.75;;;8.20;99.90;;;;;;5053468;28;20531;-52
2022/02/16 11:03:23;;;;;;;0.90;0.90;;;8.20;99.90;;;;;;5052898;28;20025;-48
2022/02/16 11:05:52;;;;;;;1.38;0.90;;;8.20;99.90;;;;;;5053511;28;20104;-50
2022/02/16 11:08:22;;;;;;;1.50;1.10;;;8.20;99.90;;;;;;5052049;28;20053;-51
2022/02/16 11:10:47;;;;;;;1.23;1.13;;;8.30;99.90;;;;;;5052571;28;20021;-50
2022/02/16 11:13:27;;;;;;;0.93;0.93;;;8.30;99.90;;;;;;5052005;28;20395;-46
2022/02/16 11:15:53;;;;;;;2.83;1.25;;;8.40;99.90;;;;;;5051885;28;20028;-51
2022/02/16 11:18:23;;;;;;;2.80;1.00;;;8.40;99.90;;;;;;5049452;28;20022;-43
2022/02/16 11:21:13;;;;;;;1.48;1.38;;;8.40;99.90;;;;;;5049525;28;20028;-48
2022/02/16 11:23:42;;;;;;;2.80;0.80;;;8.40;99.90;;;;;;5050962;28;20021;-50
2022/02/16 11:26:28;;;;;;;1.45;1.33;;;8.50;99.90;;;;;;5052177;28;20035;-45
2022/02/16 11:28:53;;;;;;;1.35;1.25;;;8.50;99.90;;;;;;5053192;28;20021;-51
2022/02/16 11:31:33;;;;;;;1.38;1.27;;;8.50;99.90;;;;;;5053252;28;20112;-52
2022/02/16 11:34:11;;;;;;;1.25;0.93;;;8.60;99.90;;;;;;5052147;28;20025;-49
2022/02/16 11:36:46;;;;;;;1.20;1.10;;;8.70;99.90;;;;;;5052712;28;20025;-49
2022/02/16 11:39:31;;;;;;;;;;;8.70;99.90;;;;;;5051708;28;20098;-49
2022/02/16 11:41:57;;;;;;;0.80;0.80;;;8.70;99.90;;;;;;5052541;28;19912;-42
2022/02/16 11:44:23;;;;;;;1.30;1.20;;;8.90;99.90;;;;;;5052129;28;20017;-46
2022/02/16 11:46:55;;;;;;;0.70;0.70;;;8.90;99.90;;;;;;5052818;28;20076;-46
2022/02/16 11:49:26;;;;;;;1.33;1.00;;;9.00;99.90;;;;;;5052440;28;20494;-49
2022/02/16 11:51:52;;;;;;;0.85;0.85;;;9.00;99.90;;;;;;5052578;28;20083;-49
2022/02/16 11:54:40;;;;;;;1.98;1.00;;;9.00;99.90;;;;;;5065553;22;20042;-48
2022/02/16 11:57:30;;;;;;;3.45;0.93;;;9.10;99.90;;;;;;5012831;28;20045;-47
2022/02/16 12:00:09;;;;;;;0.82;0.82;;;9.20;99.90;;;;;;5012687;28;20397;-49
2022/02/16 12:02:54;;;;;;;0.40;0.40;;;9.40;99.90;;;;;;5027731;28;20374;-50
2022/02/16 12:05:42;;;;;;;0.75;0.60;;;9.50;99.90;;;;;;4998632;28;20045;-52
2022/02/16 12:08:36;;;;;;;0.55;0.35;;;9.60;99.90;;;;;;5012637;28;20022;-48
2022/02/16 12:11:27;;;;;;;0.30;0.30;;;9.80;99.90;;;;;;5012595;28;20029;-50
2022/02/16 12:13:58;;;;;;;1.45;0.50;;;9.90;99.90;;;;;;5010703;28;20030;-54
2022/02/16 12:16:42;;;;;;;0.88;0.40;;;10.10;99.90;;;;;;5011060;28;20033;-47
2022/02/16 12:19:09;;;;;;;0.25;0.25;;;10.10;99.90;;;;;;5012347;28;20030;-49
2022/02/16 12:21:37;;;;;;;0.40;0.40;;;10.20;99.90;;;;;;5012428;28;20490;-47
2022/02/16 12:24:09;;;;;;;0.30;0.30;;;10.30;99.90;;;;;;5010950;28;20358;-46
2022/02/16 12:26:39;;;;;;;0.30;0.30;;;10.40;99.90;;;;;;5012344;28;20040;-50
2022/02/16 12:29:06;;;;;;;0.30;0.30;;;10.40;99.90;;;;;;5012259;28;20425;-51
2022/02/16 12:31:38;;;;;;;0.40;0.40;;;10.50;99.90;;;;;;5012192;28;20029;-50
2022/02/16 12:34:12;;;;;;;0.30;0.30;;;10.50;99.90;;;;;;5011656;28;20545;-48
2022/02/16 12:36:50;;;;;;;0.30;0.30;;;10.50;99.90;;;;;;5010795;28;20029;-46
2022/02/16 12:39:16;;;;;;;0.50;0.50;;;10.60;99.90;;;;;;5012664;28;20034;-48
2022/02/16 12:41:42;;;;;;;0.20;0.20;;;10.70;99.90;;;;;;5011980;28;20092;-49
2022/02/16 12:44:14;;;;;;;0.30;0.30;;;10.70;99.90;;;;;;5011577;28;20022;-49
2022/02/16 12:46:43;;;;;;;0.32;0.32;;;10.80;99.90;;;;;;5011967;28;20021;-51
2022/02/16 12:49:11;;;;;;;0.40;0.40;;;10.80;99.90;;;;;;5010701;28;20033;-51
2022/02/16 12:51:39;;;;;;;1.35;0.20;;;10.90;99.90;;;;;;5011578;28;20486;-48
2022/02/16 12:54:09;;;;;;;0.40;0.25;;;10.80;99.90;;;;;;5011194;28;20524;-48
2022/02/16 12:56:47;;;;;;;0.85;0.35;;;10.90;99.90;;;;;;4993967;28;20101;-50
2022/02/16 12:59:21;;;;;;;0.47;0.47;;;10.90;99.90;;;;;;5011710;28;20033;-48